createdAt,value
2022-11-21T00:02:00.954Z,22.20
2022-11-21T00:05:02.584Z,25.63
2022-11-21T00:08:04.259Z,26.47
2022-11-21T00:11:05.827Z,23.17
2022-11-21T00:14:07.407Z,23.83
2022-11-21T00:17:09.964Z,24.97
2022-11-21T00:20:12.142Z,27.33
2022-11-21T00:23:13.816Z,28.33
2022-11-21T00:26:16.231Z,27.47
2022-11-21T00:29:17.834Z,31.37
2022-11-21T00:32:19.411Z,30.13
2022-11-21T00:35:21.091Z,25.87
2022-11-21T00:38:24.423Z,32.60
2022-11-21T00:41:25.965Z,35.50
2022-11-21T00:44:27.900Z,34.17
2022-11-21T00:47:29.656Z,33.13
2022-11-21T00:50:31.260Z,36.13
2022-11-21T00:53:32.879Z,28.80
2022-11-21T00:56:34.470Z,26.87
2022-11-21T00:59:36.108Z,26.40
2022-11-21T01:02:37.699Z,26.63
2022-11-21T01:05:39.266Z,27.07
2022-11-21T01:08:42.252Z,19.30
2022-11-21T01:11:43.898Z,19.23
2022-11-21T01:14:45.522Z,21.13
2022-11-21T01:17:47.111Z,17.37
2022-11-21T01:20:48.702Z,17.20
2022-11-21T01:23:50.602Z,17.43
2022-11-21T01:26:53.633Z,24.37
2022-11-21T01:29:55.256Z,16.23
2022-11-21T01:32:56.826Z,20.43
2022-11-21T01:36:05.617Z,15.30
2022-11-21T01:39:07.805Z,16.20
2022-11-21T01:42:12.566Z,13.33
2022-11-21T01:45:32.800Z,19.73
2022-11-21T01:48:37.190Z,17.90
2022-11-21T01:51:44.676Z,18.60
2022-11-21T01:54:46.271Z,15.53
2022-11-21T01:57:48.627Z,19.77
2022-11-21T02:00:50.520Z,15.30
2022-11-21T02:03:52.761Z,14.37
2022-11-21T02:06:54.479Z,10.40
2022-11-21T02:09:57.493Z,14.47
2022-11-21T02:12:59.382Z,11.17
2022-11-21T02:16:02.041Z,18.07
2022-11-21T02:19:03.900Z,13.67
2022-11-21T02:22:10.114Z,14.57
2022-11-21T02:25:11.676Z,12.80
2022-11-21T02:28:16.728Z,9.17
2022-11-21T02:31:18.294Z,11.93
2022-11-21T02:34:19.907Z,7.23
2022-11-21T02:37:21.466Z,4.47
2022-11-21T02:40:25.716Z,8.73
2022-11-21T02:43:36.266Z,6.80
2022-11-21T02:46:45.981Z,7.20
2022-11-21T02:49:59.783Z,7.77
2022-11-21T02:53:01.454Z,10.47
2022-11-21T02:56:03.238Z,7.43
2022-11-21T02:59:05.133Z,10.17
2022-11-21T03:02:06.690Z,12.00
2022-11-21T03:05:09.598Z,9.20
2022-11-21T03:08:11.172Z,10.07
2022-11-21T03:11:12.742Z,12.33
2022-11-21T03:14:14.346Z,9.53
2022-11-21T03:17:15.922Z,9.10
2022-11-21T03:20:17.582Z,8.93
2022-11-21T03:23:19.166Z,9.77
2022-11-21T03:26:20.707Z,11.00
2022-11-21T03:29:22.424Z,9.87
2022-11-21T03:32:23.976Z,13.57
2022-11-21T03:35:25.870Z,9.93
2022-11-21T03:38:27.487Z,8.07
2022-11-21T03:41:32.043Z,9.80
2022-11-21T03:44:33.765Z,8.53
2022-11-21T03:47:35.371Z,10.67
2022-11-21T03:50:36.932Z,13.13
2022-11-21T03:53:38.509Z,14.33
2022-11-21T03:56:40.091Z,12.13
2022-11-21T03:59:41.644Z,7.43
2022-11-21T04:02:43.325Z,9.67
2022-11-21T04:05:45.346Z,13.60
2022-11-21T04:08:47.254Z,13.77
2022-11-21T04:11:48.853Z,11.53
2022-11-21T04:14:50.462Z,12.30
2022-11-21T04:17:52.076Z,10.33
2022-11-21T04:20:57.949Z,15.00
2022-11-21T04:23:59.518Z,15.27
2022-11-21T04:27:01.121Z,17.57
2022-11-21T04:30:02.825Z,16.10
2022-11-21T04:33:04.444Z,9.57
2022-11-21T04:36:06.983Z,14.13
2022-11-21T04:39:08.595Z,14.07
2022-11-21T04:42:10.170Z,10.33
2022-11-21T04:45:12.479Z,9.53
2022-11-21T04:48:14.146Z,10.90
2022-11-21T04:51:15.834Z,12.20
2022-11-21T04:54:17.404Z,9.33
2022-11-21T04:57:19.074Z,6.93
2022-11-21T05:00:24.429Z,13.07
2022-11-21T05:03:26.261Z,6.30
2022-11-21T05:06:27.915Z,7.87
2022-11-21T05:09:29.557Z,6.77
2022-11-21T05:12:49.702Z,7.20
2022-11-21T05:15:56.260Z,10.23
2022-11-21T05:18:59.715Z,8.53
2022-11-21T05:22:01.398Z,8.80
2022-11-21T05:25:03.276Z,5.93
2022-11-21T05:28:04.955Z,8.27
2022-11-21T05:31:06.675Z,6.83
2022-11-21T05:34:08.639Z,11.23
2022-11-21T05:37:10.556Z,7.60
2022-11-21T05:40:12.389Z,7.67
2022-11-21T05:43:32.768Z,10.57
2022-11-21T05:46:34.414Z,10.17
2022-11-21T05:49:36.045Z,9.40
2022-11-21T05:52:37.622Z,12.80
2022-11-21T05:55:39.267Z,10.60
2022-11-21T05:58:41.084Z,83.87
2022-11-21T06:02:01.533Z,59.87
2022-11-21T06:05:03.295Z,22.93
2022-11-21T06:08:05.014Z,16.03
2022-11-21T06:11:07.477Z,10.57
2022-11-21T06:14:09.132Z,8.03
2022-11-21T06:17:11.730Z,5.73
2022-11-21T06:20:13.299Z,10.67
2022-11-21T06:23:14.924Z,6.40
2022-11-21T06:26:17.707Z,8.00
2022-11-21T06:29:22.231Z,9.10
2022-11-21T06:32:23.919Z,8.20
2022-11-21T06:35:25.656Z,8.83
2022-11-21T06:38:27.576Z,10.43
2022-11-21T06:41:32.137Z,6.63
2022-11-21T06:44:35.047Z,10.57
2022-11-21T06:47:36.684Z,11.97
2022-11-21T06:50:38.820Z,8.23
2022-11-21T06:53:40.485Z,9.67
2022-11-21T06:56:42.131Z,7.80
2022-11-21T06:59:43.684Z,5.77
2022-11-21T07:02:45.311Z,13.30
2022-11-21T07:05:46.970Z,12.80
2022-11-21T07:09:05.073Z,14.17
2022-11-21T07:12:31.882Z,44.87
2022-11-21T07:15:33.521Z,18.73
2022-11-21T07:18:35.626Z,9.23
2022-11-21T07:21:37.490Z,11.90
2022-11-21T07:24:39.144Z,7.70
2022-11-21T07:27:40.749Z,6.20
2022-11-21T07:30:42.355Z,12.27
2022-11-21T07:33:44.003Z,7.30
2022-11-21T07:36:45.630Z,6.63
2022-11-21T07:39:47.205Z,5.83
2022-11-21T07:42:48.903Z,2.67
2022-11-21T07:45:50.492Z,5.90
2022-11-21T07:48:52.100Z,4.60
2022-11-21T07:51:53.637Z,9.93
2022-11-21T07:54:55.217Z,6.27
2022-11-21T07:58:00.429Z,5.80
2022-11-21T08:01:05.659Z,6.63
2022-11-21T08:04:07.262Z,8.53
2022-11-21T08:07:10.278Z,3.83
2022-11-21T08:10:11.886Z,7.73
2022-11-21T08:13:14.041Z,6.17
2022-11-21T08:16:15.692Z,4.60
2022-11-21T08:19:18.096Z,4.67
2022-11-21T08:22:19.747Z,6.63
2022-11-21T08:25:21.369Z,6.07
2022-11-21T08:28:23.122Z,5.30
2022-11-21T08:31:24.774Z,5.73
2022-11-21T08:34:26.466Z,5.47
2022-11-21T08:37:29.302Z,20.83
2022-11-21T08:40:31.539Z,6.53
2022-11-21T08:43:33.179Z,7.00
2022-11-21T08:46:37.254Z,9.87
2022-11-21T08:49:38.827Z,7.13
2022-11-21T08:52:40.458Z,4.30
2022-11-21T08:55:42.076Z,8.20
2022-11-21T08:58:43.723Z,3.40
2022-11-21T09:01:45.412Z,3.70
2022-11-21T09:04:47.075Z,3.50
2022-11-21T09:07:48.917Z,11.80
2022-11-21T09:10:50.687Z,10.10
2022-11-21T09:14:11.591Z,8.03
2022-11-21T09:17:32.373Z,11.30
2022-11-21T09:20:38.147Z,4.23
2022-11-21T09:23:39.794Z,4.23
2022-11-21T09:26:41.545Z,5.13
2022-11-21T09:29:46.861Z,5.70
2022-11-21T09:32:51.189Z,5.97
2022-11-21T09:35:52.769Z,4.83
2022-11-21T09:38:54.363Z,4.50
2022-11-21T09:42:16.146Z,3.77
2022-11-21T09:45:27.414Z,4.57
2022-11-21T09:48:36.264Z,5.73
2022-11-21T09:51:39.609Z,11.13
2022-11-21T09:54:48.097Z,9.60
2022-11-21T09:57:50.153Z,6.50
2022-11-21T10:00:52.549Z,4.47
2022-11-21T10:03:54.275Z,5.87
2022-11-21T10:07:00.384Z,2.53
2022-11-21T10:10:20.916Z,3.03
2022-11-21T10:13:25.319Z,8.67
2022-11-21T10:16:41.964Z,6.60
2022-11-21T10:19:43.980Z,7.47
2022-11-21T10:22:46.873Z,8.87
2022-11-21T10:25:56.275Z,3.87
2022-11-21T10:29:04.552Z,3.17
2022-11-21T10:32:14.080Z,4.93
2022-11-21T10:35:39.009Z,3.00
2022-11-21T10:38:41.648Z,4.27
2022-11-21T10:41:48.768Z,2.90
2022-11-21T10:45:09.100Z,4.10
2022-11-21T10:48:10.735Z,4.37
2022-11-21T10:51:18.732Z,4.37
2022-11-21T10:54:32.597Z,3.00
2022-11-21T10:57:45.222Z,4.70
2022-11-21T11:00:57.070Z,3.07
2022-11-21T11:04:25.939Z,6.10
2022-11-21T11:07:27.671Z,1.97
2022-11-21T11:10:29.713Z,5.37
2022-11-21T11:13:50.847Z,3.33
2022-11-21T11:16:52.742Z,2.57
2022-11-21T11:20:20.476Z,3.20
2022-11-21T11:23:28.208Z,6.97
2022-11-21T11:26:30.583Z,5.27
2022-11-21T11:29:35.311Z,6.70
2022-11-21T11:32:39.730Z,6.77
2022-11-21T11:35:42.304Z,6.57
2022-11-21T11:39:06.988Z,4.53
2022-11-21T11:42:30.256Z,3.63
2022-11-21T11:45:50.657Z,3.13
2022-11-21T11:49:17.874Z,3.40
2022-11-21T11:52:16.965Z,2.90
2022-11-21T11:55:20.448Z,1.90
2022-11-21T11:58:27.932Z,2.30
2022-11-21T12:01:39.038Z,3.40
2022-11-21T12:04:48.710Z,3.13
2022-11-21T12:12:02.575Z,5.93
2022-11-21T12:15:30.780Z,5.73
2022-11-21T12:18:37.332Z,9.73
2022-11-21T12:21:38.974Z,7.50
2022-11-21T12:24:43.259Z,5.93
2022-11-21T12:27:47.123Z,12.40
2022-11-21T12:31:15.393Z,7.77
2022-11-21T12:34:20.058Z,7.43
2022-11-21T12:37:40.468Z,4.53
2022-11-21T12:40:42.016Z,5.30
2022-11-21T12:43:54.531Z,9.57
2022-11-21T12:47:10.356Z,9.43
2022-11-21T12:50:39.085Z,4.20
2022-11-21T12:54:03.357Z,5.20
2022-11-21T12:57:12.597Z,6.30
2022-11-21T13:00:17.370Z,4.93
2022-11-21T13:03:18.979Z,5.53
2022-11-21T13:06:26.094Z,53.97
2022-11-21T13:09:29.404Z,24.47
2022-11-21T13:12:33.922Z,8.13
2022-11-21T13:15:47.961Z,12.67
2022-11-21T13:18:49.887Z,10.27
2022-11-21T13:21:53.760Z,11.37
2022-11-21T13:24:56.532Z,13.40
2022-11-21T13:28:13.345Z,13.47
2022-11-21T13:31:41.351Z,12.07
2022-11-21T13:34:42.914Z,11.93
2022-11-21T13:37:47.567Z,9.57
2022-11-21T13:41:07.670Z,9.07
2022-11-21T13:44:28.158Z,13.47
2022-11-21T13:47:33.637Z,10.33
2022-11-21T13:50:45.713Z,14.80
2022-11-21T13:54:05.897Z,11.50
2022-11-21T13:57:25.546Z,13.50
2022-11-21T14:00:33.085Z,33.37
2022-11-21T14:03:52.632Z,11.90
2022-11-21T14:06:54.306Z,14.87
2022-11-21T14:09:56.279Z,10.33
2022-11-21T14:12:58.004Z,11.90
2022-11-21T14:16:23.034Z,23.17
2022-11-21T14:19:25.104Z,21.63
2022-11-21T14:22:35.021Z,11.87
2022-11-21T14:25:40.676Z,19.53
2022-11-21T14:28:42.335Z,18.60
2022-11-21T14:31:47.748Z,20.90
2022-11-21T14:34:49.388Z,23.97
2022-11-21T14:37:51.304Z,20.27
2022-11-21T14:41:12.913Z,22.50
2022-11-21T14:44:16.086Z,18.33
2022-11-21T14:47:25.008Z,22.83
2022-11-21T14:50:29.044Z,34.00
2022-11-21T14:53:32.077Z,44.00
2022-11-21T14:56:34.473Z,33.37
2022-11-21T14:59:40.364Z,28.10
2022-11-21T15:02:42.428Z,25.73
2022-11-21T15:12:39.440Z,16.87
2022-11-21T15:15:44.227Z,14.57
2022-11-21T15:18:47.271Z,16.50
2022-11-21T15:21:49.374Z,15.03
2022-11-21T15:24:50.905Z,16.70
2022-11-21T15:28:09.088Z,19.27
2022-11-21T15:31:18.157Z,15.30
2022-11-21T15:34:36.873Z,18.97
2022-11-21T15:37:38.752Z,12.90
2022-11-21T15:40:45.577Z,12.60
2022-11-21T15:43:49.396Z,19.13
2022-11-21T15:46:51.845Z,18.27
2022-11-21T15:49:54.125Z,8.57
2022-11-21T15:52:55.774Z,13.97
2022-11-21T15:55:57.382Z,6.93
2022-11-21T15:59:00.160Z,9.17
2022-11-21T16:02:01.743Z,9.57
2022-11-21T16:05:03.487Z,9.17
2022-11-21T16:08:05.577Z,11.60
2022-11-21T16:11:07.489Z,12.63
2022-11-21T16:14:09.187Z,14.17
2022-11-21T16:17:10.783Z,16.27
2022-11-21T16:20:12.527Z,10.83
2022-11-21T16:23:14.162Z,6.37
2022-11-21T16:26:16.207Z,7.63
2022-11-21T16:29:17.909Z,8.40
2022-11-21T16:32:19.525Z,4.93
2022-11-21T16:35:22.083Z,5.17
2022-11-21T16:38:28.083Z,5.20
2022-11-21T16:41:29.679Z,9.10
2022-11-21T16:44:31.365Z,5.33
2022-11-21T16:47:35.260Z,8.93
2022-11-21T16:50:38.171Z,5.40
2022-11-21T16:53:40.140Z,10.97
2022-11-21T16:56:41.778Z,6.77
2022-11-21T16:59:43.370Z,13.87
2022-11-21T17:02:45.005Z,8.07
2022-11-21T17:05:56.471Z,12.63
2022-11-21T17:09:02.122Z,9.43
2022-11-21T17:12:03.879Z,10.50
2022-11-21T17:15:06.279Z,8.00
2022-11-21T17:18:08.022Z,9.10
2022-11-21T17:21:10.844Z,10.90
2022-11-21T17:24:13.350Z,10.63
2022-11-21T17:27:14.952Z,7.17
2022-11-21T17:30:16.755Z,11.07
2022-11-21T17:33:18.496Z,8.07
2022-11-21T17:36:27.011Z,5.80
2022-11-21T17:39:30.079Z,5.87
2022-11-21T17:42:37.033Z,8.40
2022-11-21T17:45:38.676Z,9.00
2022-11-21T17:48:40.954Z,11.90
2022-11-21T17:51:42.757Z,5.47
2022-11-21T17:54:44.609Z,8.80
2022-11-21T17:57:49.263Z,9.30
2022-11-21T18:00:55.497Z,6.47
2022-11-21T18:03:58.379Z,5.87
2022-11-21T18:07:00.052Z,5.37
2022-11-21T18:10:35.393Z,9.33
2022-11-21T18:13:23.260Z,14.00
2022-11-21T18:16:25.612Z,10.43
2022-11-21T18:19:27.254Z,8.93
2022-11-21T18:22:29.745Z,11.07
2022-11-21T18:25:36.747Z,8.10
2022-11-21T18:28:38.370Z,7.83
2022-11-21T18:31:39.966Z,7.83
2022-11-21T18:34:41.667Z,6.33
2022-11-21T18:37:43.285Z,6.20
2022-11-21T18:40:44.896Z,10.67
2022-11-21T18:43:53.774Z,10.03
2022-11-21T18:46:55.421Z,7.37
2022-11-21T18:49:57.166Z,9.10
2022-11-21T18:52:59.128Z,11.27
2022-11-21T18:56:04.893Z,13.33
2022-11-21T18:59:07.031Z,11.80
2022-11-21T19:02:09.614Z,9.47
2022-11-21T19:05:13.955Z,12.93
2022-11-21T19:08:17.897Z,19.70
2022-11-21T19:11:20.255Z,15.40
2022-11-21T19:14:21.832Z,11.97
2022-11-21T19:17:23.471Z,16.83
2022-11-21T19:20:25.079Z,11.53
2022-11-21T19:23:26.824Z,10.97
2022-11-21T19:26:29.175Z,9.30
2022-11-21T19:29:31.616Z,17.37
2022-11-21T19:32:34.253Z,12.07
2022-11-21T19:35:36.992Z,9.43
2022-11-21T19:38:38.653Z,10.07
2022-11-21T19:41:40.651Z,12.70
2022-11-21T19:44:42.187Z,12.47
2022-11-21T19:47:44.678Z,13.00
2022-11-21T19:50:58.321Z,18.07
2022-11-21T19:54:03.757Z,10.73
2022-11-21T19:57:09.332Z,13.33
2022-11-21T20:00:14.357Z,24.10
2022-11-21T20:03:17.758Z,27.47
2022-11-21T20:06:19.305Z,14.73
2022-11-21T20:09:21.948Z,14.90
2022-11-21T20:12:23.551Z,17.07
2022-11-21T20:15:25.162Z,11.53
2022-11-21T20:18:27.327Z,19.73
2022-11-21T20:21:29.352Z,15.70
2022-11-21T20:24:31.197Z,16.47
2022-11-21T20:27:33.029Z,13.70
2022-11-21T20:30:35.098Z,13.50
2022-11-21T20:33:40.816Z,14.73
2022-11-21T20:36:43.029Z,10.10
2022-11-21T20:39:44.632Z,11.73
2022-11-21T20:42:46.284Z,19.30
2022-11-21T20:46:08.342Z,9.10
2022-11-21T20:49:09.596Z,13.70
2022-11-21T20:55:32.823Z,9.67
2022-11-21T20:58:35.467Z,9.30
2022-11-21T21:01:37.154Z,9.97
2022-11-21T21:04:38.741Z,11.70
2022-11-21T21:07:40.436Z,11.37
2022-11-21T21:11:04.555Z,10.27
2022-11-21T21:14:03.794Z,9.73
2022-11-21T21:17:05.621Z,9.17
2022-11-21T21:20:08.191Z,12.20
2022-11-21T21:23:09.858Z,8.70
2022-11-21T21:26:12.893Z,11.30
2022-11-21T21:29:19.631Z,12.93
2022-11-21T21:32:21.941Z,8.93
2022-11-21T21:38:39.902Z,8.73
2022-11-21T21:41:44.680Z,9.73
2022-11-21T21:44:46.415Z,6.73
2022-11-21T21:47:48.070Z,7.30
2022-11-21T21:50:49.793Z,6.93
2022-11-21T21:53:51.958Z,8.87
2022-11-21T21:56:53.534Z,10.80
2022-11-21T21:59:55.146Z,7.73
2022-11-21T22:02:56.710Z,13.73
2022-11-21T22:06:02.213Z,8.10
2022-11-21T22:09:04.096Z,5.00
2022-11-21T22:12:05.822Z,6.27
2022-11-21T22:15:07.652Z,6.47
2022-11-21T22:18:09.251Z,6.93
2022-11-21T22:21:17.930Z,6.40
2022-11-21T22:24:27.426Z,7.03
2022-11-21T22:27:30.839Z,5.93
2022-11-21T22:30:32.440Z,8.63
2022-11-21T22:33:36.290Z,6.37
2022-11-21T22:36:37.952Z,5.40
2022-11-21T22:39:39.520Z,6.13
2022-11-21T22:42:41.139Z,6.20
2022-11-21T22:45:42.921Z,5.87
2022-11-21T22:48:44.595Z,8.20
2022-11-21T22:51:46.178Z,6.07
2022-11-21T22:54:47.898Z,6.03
2022-11-21T22:57:49.550Z,8.60
2022-11-21T23:00:51.287Z,7.63
2022-11-21T23:03:52.948Z,7.27
2022-11-21T23:06:54.604Z,6.33
2022-11-21T23:09:56.574Z,6.73
2022-11-21T23:12:58.790Z,7.07
2022-11-21T23:16:00.712Z,6.90
2022-11-21T23:19:02.345Z,6.27
2022-11-21T23:22:04.147Z,7.73
2022-11-21T23:25:06.009Z,6.53
2022-11-21T23:28:07.638Z,7.77
2022-11-21T23:31:09.829Z,7.07
2022-11-21T23:34:11.644Z,7.20
2022-11-21T23:37:13.273Z,6.97
2022-11-21T23:40:14.887Z,6.67
2022-11-21T23:43:17.062Z,6.93
2022-11-21T23:46:18.697Z,8.47
2022-11-21T23:49:20.381Z,8.40
2022-11-21T23:52:21.975Z,7.43
2022-11-21T23:55:23.568Z,8.10
2022-11-21T23:58:25.175Z,8.10
